createdAt,value
2022-08-03T00:00:25.796Z,100912.72
2022-08-03T00:02:52.609Z,100918.53
2022-08-03T00:05:19.365Z,100912.97
2022-08-03T00:07:46.071Z,100909.66
2022-08-03T00:10:15.222Z,100915.06
2022-08-03T00:12:41.926Z,100911.16
2022-08-03T00:15:11.476Z,100912.97
2022-08-03T00:17:53.418Z,100904.91
2022-08-03T00:20:21.827Z,100902.84
2022-08-03T00:22:49.111Z,100901.59
2022-08-03T00:25:15.821Z,100904.75
2022-08-03T00:27:42.515Z,100904.75
2022-08-03T00:30:09.544Z,100902.97
2022-08-03T00:32:36.152Z,100907.28
2022-08-03T00:35:09.222Z,100906.69
2022-08-03T00:37:40.606Z,100902.25
2022-08-03T00:40:10.869Z,100897.91
2022-08-03T00:42:56.810Z,100899.19
2022-08-03T00:45:32.443Z,100891.13
2022-08-03T00:47:59.954Z,100885.88
2022-08-03T00:50:29.061Z,100882.09
2022-08-03T00:52:58.094Z,100885.13
2022-08-03T00:55:25.427Z,100879.84
2022-08-03T00:57:53.975Z,100876.94
2022-08-03T01:00:23.238Z,100881.91
2022-08-03T01:02:50.293Z,100877.16
2022-08-03T01:05:17.413Z,100884.13
2022-08-03T01:07:47.788Z,100884.00
2022-08-03T01:10:23.514Z,100879.69
2022-08-03T01:13:03.092Z,100888.41
2022-08-03T01:15:43.632Z,100885.19
2022-08-03T01:18:18.368Z,100885.03
2022-08-03T01:20:49.401Z,100882.31
2022-08-03T01:23:47.528Z,100882.84
2022-08-03T01:26:54.729Z,100881.72
2022-08-03T01:29:46.550Z,100877.97
2022-08-03T01:32:59.007Z,100876.69
2022-08-03T01:35:11.427Z,100877.25
2022-08-03T01:37:51.573Z,100884.84
2022-08-03T01:40:20.702Z,100872.63
2022-08-03T01:42:48.313Z,100882.38
2022-08-03T01:45:18.652Z,100870.53
2022-08-03T01:47:47.253Z,100865.78
2022-08-03T01:50:15.012Z,100870.94
2022-08-03T01:52:46.109Z,100857.56
2022-08-03T01:55:14.069Z,100865.78
2022-08-03T01:58:05.635Z,100858.03
2022-08-03T02:00:32.743Z,100866.75
2022-08-03T02:02:59.538Z,100862.16
2022-08-03T02:05:27.846Z,100865.50
2022-08-03T02:07:55.545Z,100856.75
2022-08-03T02:10:34.546Z,100849.66
2022-08-03T02:13:03.253Z,100850.63
2022-08-03T02:15:32.344Z,100857.84
2022-08-03T02:18:00.306Z,100860.38
2022-08-03T02:20:28.632Z,100854.25
2022-08-03T02:22:55.700Z,100855.91
2022-08-03T02:25:22.384Z,100848.66
2022-08-03T02:28:00.311Z,100846.19
2022-08-03T02:30:33.510Z,100842.56
2022-08-03T02:33:04.053Z,100842.41
2022-08-03T02:35:32.766Z,100838.94
2022-08-03T02:38:05.064Z,100838.94
2022-08-03T02:40:33.234Z,100848.16
2022-08-03T02:43:05.307Z,100849.94
2022-08-03T02:45:35.917Z,100834.78
2022-08-03T02:48:05.280Z,100837.13
2022-08-03T02:50:33.954Z,100829.50
2022-08-03T02:53:03.001Z,100836.44
2022-08-03T02:55:31.674Z,100836.31
2022-08-03T02:58:01.610Z,100830.88
2022-08-03T03:00:38.840Z,100836.16
2022-08-03T03:03:06.545Z,100828.53
2022-08-03T03:05:54.803Z,100833.00
2022-08-03T03:08:25.992Z,100833.81
2022-08-03T03:10:55.595Z,100833.81
2022-08-03T03:13:23.359Z,100831.03
2022-08-03T03:15:52.108Z,100828.53
2022-08-03T03:18:22.755Z,100830.78
2022-08-03T03:20:51.791Z,100831.06
2022-08-03T03:23:20.157Z,100836.50
2022-08-03T03:25:46.847Z,100839.00
2022-08-03T03:28:14.436Z,100832.31
2022-08-03T03:30:41.216Z,100833.81
2022-08-03T03:33:08.166Z,100831.31
2022-08-03T03:35:37.964Z,100819.78
2022-08-03T03:38:07.060Z,100822.56
2022-08-03T03:40:35.926Z,100832.44
2022-08-03T03:43:03.402Z,100823.69
2022-08-03T03:45:31.285Z,100837.13
2022-08-03T03:48:02.536Z,100837.97
2022-08-03T03:50:30.929Z,100835.03
2022-08-03T03:52:57.997Z,100834.34
2022-08-03T03:55:24.835Z,100833.50
2022-08-03T03:57:51.517Z,100842.41
2022-08-03T04:00:18.837Z,100839.38
2022-08-03T04:02:46.313Z,100836.22
2022-08-03T04:05:31.900Z,100833.72
2022-08-03T04:08:25.709Z,100834.69
2022-08-03T04:11:21.034Z,100838.75
2022-08-03T04:14:01.990Z,100838.06
2022-08-03T04:16:32.568Z,100833.63
2022-08-03T04:19:04.865Z,100833.78
2022-08-03T04:21:35.591Z,100838.91
2022-08-03T04:24:09.041Z,100842.59
2022-08-03T04:26:39.495Z,100836.75
2022-08-03T04:29:09.427Z,100828.53
2022-08-03T04:31:36.856Z,100836.69
2022-08-03T04:34:04.303Z,100836.53
2022-08-03T04:36:37.215Z,100839.69
2022-08-03T04:39:07.300Z,100841.53
2022-08-03T04:42:07.831Z,100840.53
2022-08-03T04:44:28.400Z,100842.72
2022-08-03T04:46:57.008Z,100836.47
2022-08-03T04:49:24.175Z,100828.41
2022-08-03T04:51:50.921Z,100832.09
2022-08-03T04:54:17.630Z,100836.25
2022-08-03T04:56:46.889Z,100839.78
2022-08-03T04:59:13.864Z,100844.78
2022-08-03T05:01:42.070Z,100841.75
2022-08-03T05:04:08.944Z,100838.63
2022-08-03T05:06:35.756Z,100841.03
2022-08-03T05:09:03.140Z,100840.91
2022-08-03T05:11:30.857Z,100838.53
2022-08-03T05:13:59.973Z,100837.44
2022-08-03T05:16:28.583Z,100842.16
2022-08-03T05:18:55.206Z,100842.56
2022-08-03T05:21:21.931Z,100851.72
2022-08-03T05:23:48.540Z,100838.16
2022-08-03T05:26:15.206Z,100843.47
2022-08-03T05:28:50.746Z,100837.50
2022-08-03T05:31:17.841Z,100847.91
2022-08-03T05:33:44.811Z,100833.56
2022-08-03T05:36:11.451Z,100830.59
2022-08-03T05:38:38.217Z,100839.06
2022-08-03T05:41:21.324Z,100837.97
2022-08-03T05:43:53.830Z,100845.59
2022-08-03T05:46:23.812Z,100838.66
2022-08-03T05:48:50.586Z,100841.00
2022-08-03T05:51:17.634Z,100839.34
2022-08-03T05:53:44.948Z,100840.31
2022-08-03T05:56:13.651Z,100837.34
2022-08-03T05:58:46.038Z,100837.22
2022-08-03T06:01:12.981Z,100828.28
2022-08-03T06:03:39.796Z,100836.06
2022-08-03T06:06:06.482Z,100827.25
2022-08-03T06:08:33.179Z,100828.63
2022-08-03T06:11:00.126Z,100824.34
2022-08-03T06:13:29.825Z,100827.16
2022-08-03T06:15:56.823Z,100825.34
2022-08-03T06:18:24.656Z,100816.22
2022-08-03T06:20:52.283Z,100821.69
2022-08-03T06:23:21.921Z,100831.31
2022-08-03T06:25:48.857Z,100832.59
2022-08-03T06:28:51.825Z,100835.25
2022-08-03T06:31:06.525Z,100837.03
2022-08-03T06:34:22.898Z,100828.22
2022-08-03T06:36:23.110Z,100830.84
2022-08-03T06:38:49.780Z,100825.53
2022-08-03T06:41:16.740Z,100828.69
2022-08-03T06:44:03.097Z,100830.16
2022-08-03T06:46:30.214Z,100826.28
2022-08-03T06:48:57.000Z,100825.59
2022-08-03T06:52:05.451Z,100827.19
2022-08-03T06:54:12.295Z,100828.00
2022-08-03T06:56:38.923Z,100827.97
2022-08-03T06:59:05.609Z,100831.56
2022-08-03T07:01:32.337Z,100827.81
2022-08-03T07:04:00.547Z,100834.22
2022-08-03T07:06:27.262Z,100824.56
2022-08-03T07:08:58.986Z,100831.47
2022-08-03T07:11:28.639Z,100825.06
2022-08-03T07:13:55.258Z,100827.00
2022-08-03T07:16:22.273Z,100826.59
2022-08-03T07:18:48.986Z,100836.31
2022-08-03T07:21:17.142Z,100827.56
2022-08-03T07:23:43.894Z,100820.00
2022-08-03T07:26:10.579Z,100811.31
2022-08-03T07:28:37.696Z,100812.03
2022-08-03T07:31:04.405Z,100805.28
2022-08-03T07:33:31.067Z,100806.72
2022-08-03T07:35:57.842Z,100812.50
2022-08-03T07:38:24.648Z,100814.09
2022-08-03T07:40:54.447Z,100819.19
2022-08-03T07:43:21.352Z,100816.09
2022-08-03T07:45:48.056Z,100811.06
2022-08-03T07:48:14.671Z,100808.06
2022-08-03T07:50:41.441Z,100820.75
2022-08-03T07:53:08.763Z,100815.28
2022-08-03T07:55:46.026Z,100804.50
2022-08-03T07:58:19.176Z,100800.88
2022-08-03T08:00:50.928Z,100799.66
2022-08-03T08:03:17.721Z,100803.44
2022-08-03T08:05:47.637Z,100807.84
2022-08-03T08:08:14.537Z,100803.25
2022-08-03T08:10:42.593Z,100803.56
2022-08-03T08:13:27.230Z,100800.22
2022-08-03T08:15:54.004Z,100790.97
2022-08-03T08:18:20.744Z,100789.13
2022-08-03T08:20:47.829Z,100801.59
2022-08-03T08:23:42.227Z,100795.53
2022-08-03T08:26:01.515Z,100788.63
2022-08-03T08:28:33.457Z,100798.28
2022-08-03T08:31:01.390Z,100804.59
2022-08-03T08:33:42.217Z,100801.88
2022-08-03T08:36:15.585Z,100802.56
2022-08-03T08:38:46.160Z,100800.94
2022-08-03T08:41:14.351Z,100798.19
2022-08-03T08:43:42.185Z,100815.53
2022-08-03T08:46:23.463Z,100816.47
2022-08-03T08:48:52.078Z,100817.69
2022-08-03T08:51:20.693Z,100809.84
2022-08-03T08:53:51.971Z,100805.66
2022-08-03T08:56:20.457Z,100813.31
2022-08-03T08:59:00.157Z,100798.59
2022-08-03T09:01:27.983Z,100809.06
2022-08-03T09:03:55.208Z,100807.69
2022-08-03T09:06:23.045Z,100808.31
2022-08-03T09:08:49.721Z,100811.72
2022-08-03T09:11:16.448Z,100811.06
2022-08-03T09:13:43.094Z,100800.16
2022-08-03T09:16:21.373Z,100802.44
2022-08-03T09:18:53.265Z,100817.31
2022-08-03T09:21:33.894Z,100808.56
2022-08-03T09:24:04.756Z,100810.28
2022-08-03T09:26:34.896Z,100812.41
2022-08-03T09:29:08.134Z,100815.84
2022-08-03T09:31:37.724Z,100810.06
2022-08-03T09:34:06.861Z,100804.59
2022-08-03T09:36:41.703Z,100801.97
2022-08-03T09:39:11.464Z,100805.19
2022-08-03T09:41:43.481Z,100808.56
2022-08-03T09:44:24.354Z,100811.81
2022-08-03T09:46:56.751Z,100815.28
2022-08-03T09:49:25.108Z,100809.84
2022-08-03T09:52:32.692Z,100802.06
2022-08-03T09:54:40.078Z,100804.63
2022-08-03T09:57:06.865Z,100802.91
2022-08-03T09:59:34.220Z,100808.94
2022-08-03T10:02:02.032Z,100805.09
2022-08-03T10:04:29.161Z,100806.91
2022-08-03T10:07:10.835Z,100803.91
2022-08-03T10:09:38.034Z,100809.19
2022-08-03T10:12:12.738Z,100798.53
2022-08-03T10:14:41.936Z,100795.59
2022-08-03T10:17:09.755Z,100798.34
2022-08-03T10:19:36.659Z,100799.94
2022-08-03T10:22:20.301Z,100790.53
2022-08-03T10:24:59.607Z,100800.84
2022-08-03T10:27:31.670Z,100796.03
2022-08-03T10:30:01.528Z,100801.13
2022-08-03T10:32:34.094Z,100782.25
2022-08-03T10:35:19.872Z,100792.44
2022-08-03T10:38:00.890Z,100792.13
2022-08-03T10:40:49.541Z,100785.94
2022-08-03T10:43:25.800Z,100787.38
2022-08-03T10:45:56.385Z,100788.34
2022-08-03T10:48:25.373Z,100794.34
2022-08-03T10:51:00.633Z,100786.09
2022-08-03T10:53:55.001Z,100789.06
2022-08-03T10:56:53.460Z,100791.84
2022-08-03T10:59:59.492Z,100792.06
2022-08-03T11:03:01.789Z,100785.53
2022-08-03T11:05:30.239Z,100784.13
2022-08-03T11:08:30.263Z,100792.28
2022-08-03T11:11:19.582Z,100796.50
2022-08-03T11:14:15.468Z,100789.53
2022-08-03T11:16:48.180Z,100785.28
2022-08-03T11:19:17.265Z,100780.75
2022-08-03T11:21:52.724Z,100779.72
2022-08-03T11:24:39.094Z,100785.06
2022-08-03T11:27:19.338Z,100795.75
2022-08-03T11:30:10.634Z,100786.28
2022-08-03T11:32:40.502Z,100787.94
2022-08-03T11:35:16.231Z,100770.88
2022-08-03T11:38:01.944Z,100787.75
2022-08-03T11:40:52.494Z,100793.38
2022-08-03T11:43:37.699Z,100785.59
2022-08-03T11:46:10.216Z,100779.31
2022-08-03T11:48:50.571Z,100775.81
2022-08-03T11:51:35.482Z,100796.81
2022-08-03T11:54:06.827Z,100781.50
2022-08-03T11:56:47.776Z,100794.06
2022-08-03T11:59:20.451Z,100775.38
2022-08-03T12:01:48.944Z,100770.63
2022-08-03T12:04:16.370Z,100772.31
2022-08-03T12:07:01.195Z,100771.88
2022-08-03T12:09:27.863Z,100783.22
2022-08-03T12:12:00.390Z,100772.91
2022-08-03T12:14:50.424Z,100772.94
2022-08-03T12:17:20.702Z,100766.97
2022-08-03T12:19:47.531Z,100774.44
2022-08-03T12:22:15.830Z,100773.81
2022-08-03T12:24:46.611Z,100773.81
2022-08-03T12:27:23.190Z,100766.34
2022-08-03T12:29:57.267Z,100763.91
2022-08-03T12:32:29.926Z,100764.25
2022-08-03T12:35:05.883Z,100764.66
2022-08-03T12:37:34.868Z,100753.56
2022-08-03T12:40:10.527Z,100755.22
2022-08-03T12:42:40.816Z,100762.81
2022-08-03T12:45:29.092Z,100748.72
2022-08-03T12:48:03.477Z,100752.56
2022-08-03T12:50:32.532Z,100750.78
2022-08-03T12:53:01.608Z,100755.22
2022-08-03T12:55:56.597Z,100761.69
2022-08-03T12:58:33.808Z,100762.63
2022-08-03T13:01:01.602Z,100751.91
2022-08-03T13:03:49.832Z,100747.22
2022-08-03T13:06:25.536Z,100739.19
2022-08-03T13:09:06.374Z,100744.94
2022-08-03T13:11:57.294Z,100749.22
2022-08-03T13:14:23.800Z,100741.28
2022-08-03T13:16:53.734Z,100745.03
2022-08-03T13:19:21.510Z,100744.31
2022-08-03T13:21:53.739Z,100746.56
2022-08-03T13:24:35.122Z,100749.88
2022-08-03T13:28:02.335Z,100742.44
2022-08-03T13:29:52.947Z,100746.03
2022-08-03T13:32:25.245Z,100751.50
2022-08-03T13:34:52.062Z,100752.13
2022-08-03T13:37:18.785Z,100742.31
2022-08-03T13:39:57.545Z,100745.19
2022-08-03T13:42:28.053Z,100746.66
2022-08-03T13:45:15.072Z,100749.53
2022-08-03T13:47:41.793Z,100745.72
2022-08-03T13:50:08.997Z,100726.03
2022-08-03T13:52:36.463Z,100744.53
2022-08-03T13:55:06.463Z,100752.94
2022-08-03T13:58:02.295Z,100744.94
2022-08-03T14:00:28.121Z,100744.81
2022-08-03T14:03:03.002Z,100747.63
2022-08-03T14:05:32.249Z,100748.94
2022-08-03T14:08:04.580Z,100732.84
2022-08-03T14:10:33.538Z,100733.06
2022-08-03T14:13:00.518Z,100735.09
2022-08-03T14:15:28.585Z,100733.94
2022-08-03T14:17:56.329Z,100733.97
2022-08-03T14:20:38.034Z,100730.03
2022-08-03T14:23:07.275Z,100725.50
2022-08-03T14:25:43.440Z,100725.19
2022-08-03T14:28:18.794Z,100728.72
2022-08-03T14:30:45.737Z,100722.81
2022-08-03T14:33:14.527Z,100731.25
2022-08-03T14:35:41.508Z,100718.69
2022-08-03T14:38:08.262Z,100721.09
2022-08-03T14:40:35.077Z,100727.00
2022-08-03T14:43:02.575Z,100720.72
2022-08-03T14:45:32.258Z,100725.97
2022-08-03T14:50:32.674Z,100726.94
2022-08-03T14:50:51.723Z,100727.84
2022-08-03T14:53:21.624Z,100715.47
2022-08-03T14:55:51.253Z,100726.44
2022-08-03T14:58:21.204Z,100721.53
2022-08-03T15:00:48.953Z,100716.25
2022-08-03T15:03:17.031Z,100726.53
2022-08-03T15:05:44.345Z,100714.63
2022-08-03T15:08:11.424Z,100721.66
2022-08-03T15:10:40.571Z,100716.31
2022-08-03T15:13:12.062Z,100726.03
2022-08-03T15:15:38.897Z,100723.75
2022-08-03T15:18:05.989Z,100719.22
2022-08-03T15:20:43.882Z,100728.50
2022-08-03T15:23:11.895Z,100717.78
2022-08-03T15:26:29.356Z,100719.16
2022-08-03T15:28:25.338Z,100720.03
2022-08-03T15:30:53.859Z,100727.78
2022-08-03T15:33:20.748Z,100714.88
2022-08-03T15:35:47.820Z,100715.03
2022-08-03T15:38:14.846Z,100725.31
2022-08-03T15:40:41.849Z,100719.41
2022-08-03T15:43:08.653Z,100721.91
2022-08-03T15:45:40.628Z,100721.94
2022-08-03T15:48:09.252Z,100713.84
2022-08-03T15:50:36.337Z,100720.38
2022-08-03T15:53:03.406Z,100715.44
2022-08-03T15:55:31.073Z,100718.56
2022-08-03T15:59:03.876Z,100723.53
2022-08-03T16:00:44.886Z,100725.19
2022-08-03T16:03:11.540Z,100719.81
2022-08-03T16:05:38.237Z,100715.94
2022-08-03T16:08:07.932Z,100723.97
2022-08-03T16:10:36.978Z,100720.19
2022-08-03T16:13:03.636Z,100720.00
2022-08-03T16:15:30.273Z,100720.03
2022-08-03T16:17:57.043Z,100720.41
2022-08-03T16:20:30.979Z,100724.09
2022-08-03T16:23:07.732Z,100730.19
2022-08-03T16:25:38.320Z,100728.84
2022-08-03T16:28:07.631Z,100728.22
2022-08-03T16:30:35.209Z,100722.25
2022-08-03T16:33:01.963Z,100716.34
2022-08-03T16:35:28.648Z,100720.84
2022-08-03T16:37:56.390Z,100721.72
2022-08-03T16:40:25.083Z,100717.97
2022-08-03T16:42:52.008Z,100716.50
2022-08-03T16:45:18.713Z,100715.53
2022-08-03T16:47:45.390Z,100723.00
2022-08-03T16:50:19.074Z,100716.25
2022-08-03T16:52:48.315Z,100720.38
2022-08-03T16:55:42.893Z,100721.66
2022-08-03T16:58:03.241Z,100722.22
2022-08-03T17:00:34.363Z,100718.38
2022-08-03T17:03:18.742Z,100729.09
2022-08-03T17:05:47.745Z,100723.53
2022-08-03T17:08:15.793Z,100720.88
2022-08-03T17:10:45.633Z,100732.34
2022-08-03T17:13:21.503Z,100735.72
2022-08-03T17:16:00.886Z,100735.09
2022-08-03T17:18:34.934Z,100727.47
2022-08-03T17:21:06.040Z,100742.25
2022-08-03T17:23:49.642Z,100741.63
2022-08-03T17:26:21.850Z,100740.03
2022-08-03T17:28:56.489Z,100743.94
2022-08-03T17:31:31.172Z,100745.38
2022-08-03T17:34:01.580Z,100742.50
2022-08-03T17:36:54.001Z,100746.78
2022-08-03T17:39:23.549Z,100745.97
2022-08-03T17:42:29.195Z,100745.09
2022-08-03T17:44:54.686Z,100745.09
2022-08-03T17:47:23.041Z,100750.03
2022-08-03T17:49:56.877Z,100750.03
2022-08-03T17:52:41.918Z,100748.78
2022-08-03T17:55:57.602Z,100750.41
2022-08-03T17:58:16.691Z,100749.63
2022-08-03T18:01:04.986Z,100757.72
2022-08-03T18:04:02.729Z,100756.00
2022-08-03T18:06:55.843Z,100761.34
2022-08-03T18:10:03.252Z,100764.50
2022-08-03T18:12:23.512Z,100766.31
2022-08-03T18:17:55.948Z,100763.88
2022-08-03T18:20:31.205Z,100766.56
2022-08-03T18:25:54.900Z,100777.47
2022-08-03T18:28:28.856Z,100774.78
2022-08-03T18:30:57.828Z,100775.47
2022-08-03T18:34:16.411Z,100780.31
2022-08-03T18:36:21.755Z,100781.72
2022-08-03T18:38:57.343Z,100776.72
2022-08-03T18:41:32.138Z,100777.59
2022-08-03T18:44:06.801Z,100787.50
2022-08-03T18:47:07.029Z,100784.78
2022-08-03T18:50:07.215Z,100787.78
2022-08-03T18:52:46.023Z,100795.06
2022-08-03T18:55:33.495Z,100797.66
2022-08-03T18:58:17.616Z,100797.47
2022-08-03T19:01:59.803Z,100794.31
2022-08-03T19:04:25.413Z,100798.31
2022-08-03T19:07:01.575Z,100794.03
2022-08-03T19:09:37.520Z,100800.22
2022-08-03T19:12:26.564Z,100795.75
2022-08-03T19:15:03.852Z,100797.31
2022-08-03T19:17:36.002Z,100799.28
2022-08-03T19:20:08.989Z,100794.03
2022-08-03T19:22:40.105Z,100802.50
2022-08-03T19:25:12.698Z,100802.75
2022-08-03T19:27:39.917Z,100798.16
2022-08-03T19:30:21.806Z,100804.50
2022-08-03T19:32:54.374Z,100804.34
2022-08-03T19:38:10.274Z,100806.06
2022-08-03T19:40:45.625Z,100803.16
2022-08-03T19:43:22.358Z,100804.94
2022-08-03T19:46:05.370Z,100802.38
2022-08-03T19:48:35.313Z,100809.56
2022-08-03T19:51:04.516Z,100812.78
2022-08-03T19:53:45.185Z,100807.34
2022-08-03T19:56:14.304Z,100811.16
2022-08-03T19:58:43.083Z,100810.34
2022-08-03T20:01:21.251Z,100808.56
2022-08-03T20:03:49.271Z,100809.31
2022-08-03T20:06:25.127Z,100806.84
2022-08-03T20:08:53.694Z,100805.56
2022-08-03T20:11:21.059Z,100812.25
2022-08-03T20:13:57.635Z,100818.41
2022-08-03T20:16:25.486Z,100824.03
2022-08-03T20:18:52.421Z,100830.81
2022-08-03T20:21:23.286Z,100832.38
2022-08-03T20:24:01.560Z,100828.78
2022-08-03T20:26:31.163Z,100826.84
2022-08-03T20:29:09.045Z,100840.34
2022-08-03T20:31:36.413Z,100828.47
2022-08-03T20:34:03.973Z,100845.81
2022-08-03T20:36:30.676Z,100839.97
2022-08-03T20:38:57.993Z,100836.31
2022-08-03T20:41:25.105Z,100837.97
2022-08-03T20:43:51.811Z,100836.16
2022-08-03T20:46:29.202Z,100843.22
2022-08-03T20:49:01.314Z,100844.78
2022-08-03T20:51:49.073Z,100842.47
2022-08-03T20:54:28.581Z,100842.84
2022-08-03T20:56:59.004Z,100850.13
2022-08-03T20:59:36.609Z,100850.94
2022-08-03T21:02:19.604Z,100853.69
2022-08-03T21:04:56.177Z,100846.06
2022-08-03T21:07:24.798Z,100854.41
2022-08-03T21:10:15.455Z,100853.28
2022-08-03T21:12:53.680Z,100859.59
2022-08-03T21:12:57.898Z,100772.72
2022-08-03T21:13:04.040Z,100762.38
2022-08-03T21:13:09.604Z,100802.84
2022-08-03T21:16:06.823Z,100853.38
2022-08-03T21:18:15.851Z,100856.50
2022-08-03T21:20:46.042Z,100855.59
2022-08-03T21:23:40.095Z,100858.25
2022-08-03T21:26:01.066Z,100857.75
2022-08-03T21:28:28.122Z,100854.09
2022-08-03T21:30:54.882Z,100861.91
2022-08-03T21:33:26.591Z,100861.00
2022-08-03T21:35:53.888Z,100862.16
2022-08-03T21:38:20.869Z,100851.50
2022-08-03T21:40:57.013Z,100852.81
2022-08-03T21:43:23.618Z,100845.19
2022-08-03T21:46:03.946Z,100850.03
2022-08-03T21:48:39.062Z,100839.88
2022-08-03T21:51:07.047Z,100846.84
2022-08-03T21:54:03.020Z,100843.53
2022-08-03T21:56:21.970Z,100843.69
2022-08-03T21:58:56.944Z,100845.84
2022-08-03T22:01:28.537Z,100849.69
2022-08-03T22:04:07.606Z,100843.69
2022-08-03T22:06:42.404Z,100846.84
2022-08-03T22:09:09.361Z,100844.03
2022-08-03T22:11:37.788Z,100850.34
2022-08-03T22:14:05.226Z,100838.38
2022-08-03T22:16:32.057Z,100837.78
2022-08-03T22:18:58.739Z,100846.78
2022-08-03T22:21:36.158Z,100840.91
2022-08-03T22:24:05.600Z,100846.88
2022-08-03T22:26:35.468Z,100843.22
2022-08-03T22:29:07.941Z,100844.22
2022-08-03T22:31:57.979Z,100848.53
2022-08-03T22:34:26.795Z,100843.09
2022-08-03T22:37:01.414Z,100841.66
2022-08-03T22:39:29.864Z,100836.38
2022-08-03T22:41:59.005Z,100849.19
2022-08-03T22:44:36.686Z,100841.56
2022-08-03T22:47:04.527Z,100845.75
2022-08-03T22:49:32.261Z,100845.94
2022-08-03T22:51:59.470Z,100852.56
2022-08-03T22:54:26.095Z,100841.94
2022-08-03T22:56:52.703Z,100839.09
2022-08-03T22:59:40.195Z,100837.25
2022-08-03T23:02:15.179Z,100834.22
2022-08-03T23:04:55.044Z,100835.25
2022-08-03T23:07:29.376Z,100836.25
2022-08-03T23:09:56.919Z,100836.63
2022-08-03T23:12:24.254Z,100841.09
2022-08-03T23:15:01.763Z,100832.47
2022-08-03T23:17:31.019Z,100834.13
2022-08-03T23:20:06.941Z,100833.66
2022-08-03T23:22:35.379Z,100839.97
2022-08-03T23:25:04.790Z,100831.16
2022-08-03T23:27:32.739Z,100841.78
2022-08-03T23:30:01.203Z,100843.34
2022-08-03T23:32:30.945Z,100849.00
2022-08-03T23:35:21.572Z,100841.41
2022-08-03T23:38:04.372Z,100840.13
2022-08-03T23:40:37.958Z,100846.97
2022-08-03T23:43:05.599Z,100856.63
2022-08-03T23:45:36.235Z,100855.84
2022-08-03T23:48:02.866Z,100854.06
2022-08-03T23:50:44.912Z,100861.25
2022-08-03T23:53:30.154Z,100872.88
2022-08-03T23:56:24.517Z,100869.59
2022-08-03T23:59:10.889Z,100872.22
